Time;durP1;ratioP1;P1;durP2;ratioP2;P2;SDS_P1;SDS_P2;PMS_P1;PMS_P2;Temp;Humidity;BMP_temperature;BMP_pressure;BME280_temperature;BME280_humidity;BME280_pressure;Samples;Min_cycle;Max_cycle;Signal;HPM_P1;HPM_P2
2022/06/17 00:00:15;;;;;;;;;6.50;5.50;;;;;20.22;50.42;102373.44;5025782;28;8892;-67
2022/06/17 00:02:42;;;;;;;;;7.25;7.25;;;;;20.21;50.03;102369.81;5015520;28;8927;-67
2022/06/17 00:05:08;;;;;;;;;8.75;7.00;;;;;20.21;50.28;102366.25;5019970;28;8903;-66
2022/06/17 00:07:36;;;;;;;;;7.25;7.25;;;;;20.21;50.59;102364.34;5018218;28;8880;-66
2022/06/17 00:10:06;;;;;;;;;4.75;4.75;;;;;20.22;50.52;102362.50;5028386;28;8833;-67
2022/06/17 00:12:32;;;;;;;;;4.50;4.50;;;;;20.23;50.33;102367.72;5021960;28;8825;-67
2022/06/17 00:15:14;;;;;;;;;6.75;6.75;;;;;20.24;50.41;102369.41;5029966;28;8903;-67
2022/06/17 00:17:54;;;;;;;;;6.25;6.25;;;;;20.24;50.19;102365.81;5030202;28;8841;-67
2022/06/17 00:20:23;;;;;;;;;5.50;5.50;;;;;20.22;50.00;102366.06;5028449;28;8833;-67
2022/06/17 00:22:50;;;;;;;;;8.00;6.25;;;;;20.20;50.10;102362.69;5017149;28;8934;-67
2022/06/17 00:25:25;;;;;;;;;6.00;6.00;;;;;20.19;50.02;102355.56;5030349;28;8919;-67
2022/06/17 00:27:53;;;;;;;;;7.00;6.25;;;;;20.20;49.92;102365.44;5014901;28;8815;-65
2022/06/17 00:30:26;;;;;;;;;10.75;9.00;;;;;20.18;50.04;102351.16;4999329;28;8844;-67
2022/06/17 00:32:54;;;;;;;;;8.75;8.75;;;;;20.17;50.23;102343.16;5023719;28;8836;-67
2022/06/17 00:35:22;;;;;;;;;7.50;7.50;;;;;20.15;50.39;102357.06;5011609;28;8850;-66
2022/06/17 00:37:49;;;;;;;;;7.75;7.75;;;;;20.13;50.27;102352.84;5008954;28;8844;-67
2022/06/17 00:40:26;;;;;;;;;9.50;8.50;;;;;20.10;50.55;102348.69;5010586;28;8910;-67
2022/06/17 00:42:53;;;;;;;;;9.50;9.25;;;;;20.06;50.59;102344.72;5012576;28;8830;-67
2022/06/17 00:45:34;;;;;;;;;7.25;7.25;;;;;20.02;51.00;102356.31;5004136;28;8859;-66
2022/06/17 00:48:04;;;;;;;;;8.50;8.50;;;;;19.97;51.29;102354.22;4994681;28;9521;-66
2022/06/17 00:50:46;;;;;;;;;8.25;8.25;;;;;19.93;51.39;102358.44;5001762;28;8845;-67
2022/06/17 00:53:19;;;;;;;;;9.00;9.00;;;;;19.90;51.39;102358.91;5026761;28;8980;-66
2022/06/17 00:55:54;;;;;;;;;10.75;9.00;;;;;19.87;51.61;102357.44;5010429;28;8839;-66
2022/06/17 00:58:32;;;;;;;;;8.75;8.75;;;;;19.83;51.68;102355.38;5009988;28;8859;-67
2022/06/17 01:01:02;;;;;;;;;11.50;9.25;;;;;19.79;52.11;102356.88;5022246;28;8891;-67
2022/06/17 01:03:34;;;;;;;;;9.00;9.00;;;;;19.74;52.27;102355.63;5026760;28;8845;-67
2022/06/17 01:06:07;;;;;;;;;7.75;7.75;;;;;19.70;52.43;102365.31;5024023;28;9615;-67
2022/06/17 01:11:29;;;;;;;;;9.50;9.50;;;;;19.61;53.04;102360.31;5017757;28;8944;-67
2022/06/17 01:13:56;;;;;;;;;7.67;7.67;;;;;19.58;53.30;102364.31;5003255;28;9535;-65
2022/06/17 01:16:29;;;;;;;;;8.67;8.00;;;;;19.57;53.14;102353.56;4990879;28;8939;-66
2022/06/17 01:19:14;;;;;;;;;10.00;10.00;;;;;19.56;53.34;102347.28;4996315;28;8912;-65
2022/06/17 01:21:51;;;;;;;;;8.50;7.00;;;;;19.58;53.36;102356.09;5010909;28;8834;-65
2022/06/17 01:24:18;;;;;;;;;8.00;7.50;;;;;19.58;53.24;102350.66;4989395;28;8990;-65
2022/06/17 01:26:45;;;;;;;;;11.75;10.75;;;;;19.57;53.29;102345.38;5016361;28;8825;-65
2022/06/17 01:29:13;;;;;;;;;7.75;7.75;;;;;19.56;53.32;102347.28;5007787;28;8874;-66
2022/06/17 01:31:47;;;;;;;;;12.50;9.50;;;;;19.50;53.65;102348.16;4987611;28;8850;-66
2022/06/17 01:34:14;;;;;;;;;7.75;7.75;;;;;19.47;53.75;102354.88;5012194;28;8825;-66
2022/06/17 01:36:43;;;;;;;;;11.25;11.25;;;;;19.44;53.48;102354.47;5006522;28;8873;-66
2022/06/17 01:39:13;;;;;;;;;11.25;9.00;;;;;19.40;53.97;102358.69;5014566;28;9520;-64
2022/06/17 01:41:42;;;;;;;;;11.00;11.00;;;;;19.34;54.05;102354.09;5003690;28;8814;-64
2022/06/17 01:44:16;;;;;;;;;8.25;7.25;;;;;19.30;54.53;102352.88;5012438;28;8847;-66
2022/06/17 01:46:45;;;;;;;;;13.00;10.67;;;;;19.25;54.87;102356.25;5008209;28;8808;-66
2022/06/17 01:49:17;;;;;;;;;9.75;9.00;;;;;19.22;54.95;102346.56;5008835;28;9015;-65
2022/06/17 01:51:50;;;;;;;;;10.25;10.00;;;;;19.21;54.92;102349.53;5009629;28;8966;-65
2022/06/17 01:54:23;;;;;;;;;11.00;10.67;;;;;19.20;54.95;102337.78;5003606;28;8823;-66
2022/06/17 01:56:53;;;;;;;;;10.25;10.25;;;;;19.21;54.87;102323.06;4999530;28;9703;-65
2022/06/17 01:59:34;;;;;;;;;9.67;9.00;;;;;19.19;54.87;102314.25;5020367;28;8981;-64
2022/06/17 02:02:04;;;;;;;;;12.00;12.00;;;;;19.19;54.92;102325.16;5001269;28;8904;-65
2022/06/17 02:04:36;;;;;;;;;10.33;10.33;;;;;19.14;54.85;102322.25;5010868;28;9012;-66
2022/06/17 02:07:13;;;;;;;;;10.00;10.00;;;;;19.15;54.82;102332.09;5021256;28;9040;-64
2022/06/17 02:09:41;;;;;;;;;11.33;9.33;;;;;19.10;54.98;102325.63;5013255;28;9016;-65
2022/06/17 02:12:09;;;;;;;;;3.00;3.00;;;;;19.09;55.29;102330.25;5018369;28;8937;-66
2022/06/17 02:14:39;;;;;;;;;7.00;7.00;;;;;19.10;54.90;102334.66;5001812;28;8817;-66
2022/06/17 02:17:21;;;;;;;;;9.67;8.67;;;;;19.14;54.70;102338.63;5004358;28;9105;-65
2022/06/17 02:19:58;;;;;;;;;9.67;8.67;;;;;19.15;54.49;102334.84;4994797;28;9754;-66
2022/06/17 02:22:29;;;;;;;;;9.50;9.50;;;;;19.15;54.96;102347.66;4999379;28;8947;-65
2022/06/17 02:25:00;;;;;;;;;9.33;9.00;;;;;19.12;54.60;102339.88;5025501;28;8946;-65
2022/06/17 02:27:28;;;;;;;;;8.00;7.67;;;;;19.13;54.29;102347.03;5026968;28;8902;-66
2022/06/17 02:29:56;;;;;;;;;9.67;9.67;;;;;19.12;54.45;102343.47;5025425;28;9001;-65
2022/06/17 02:32:28;;;;;;;;;12.00;12.00;;;;;19.13;54.04;102345.16;5020820;28;8936;-65
2022/06/17 02:35:05;;;;;;;;;8.33;8.33;;;;;19.10;54.16;102334.66;5012754;28;9125;-64
2022/06/17 02:37:32;;;;;;;;;9.33;9.33;;;;;19.08;54.39;102344.09;5019880;28;8979;-66
2022/06/17 02:40:03;;;;;;;;;7.00;7.00;;;;;19.06;54.41;102335.28;5003291;28;8979;-65
2022/06/17 02:42:36;;;;;;;;;8.00;8.00;;;;;19.07;54.62;102335.06;5008459;28;8943;-65
2022/06/17 02:45:14;;;;;;;;;11.00;9.75;;;;;19.09;53.85;102337.59;5012606;28;8923;-65
2022/06/17 02:47:41;;;;;;;;;10.33;8.67;;;;;19.09;53.78;102341.16;5014347;28;8853;-66
2022/06/17 02:50:39;;;;;;;;;9.67;9.67;;;;;19.08;53.78;102338.63;5004863;28;8963;-65
2022/06/17 02:53:06;;;;;;;;;12.67;10.33;;;;;19.03;53.76;102336.56;4986517;28;9011;-65
2022/06/17 02:55:36;;;;;;;;;10.67;8.00;;;;;19.00;54.02;102329.66;5016870;28;8972;-65
2022/06/17 02:58:35;;;;;;;;;9.00;6.50;;;;;19.01;53.89;102327.75;5001622;28;8934;-65
2022/06/17 03:01:07;;;;;;;;;9.00;9.00;;;;;19.04;53.74;102335.53;5005215;28;8877;-64
2022/06/17 03:03:34;;;;;;;;;7.67;7.00;;;;;19.05;54.00;102334.47;5025362;28;9180;-64
2022/06/17 03:06:01;;;;;;;;;10.00;7.50;;;;;19.07;54.07;102335.06;5002274;28;8976;-65
2022/06/17 03:08:32;;;;;;;;;11.00;10.33;;;;;19.08;53.70;102334.03;5002067;28;8830;-65
2022/06/17 03:11:01;;;;;;;;;7.33;7.33;;;;;19.10;53.83;102331.91;4990216;28;8947;-67
2022/06/17 03:13:38;;;;;;;;;7.33;7.00;;;;;19.11;53.57;102330.84;5022364;28;8944;-66
2022/06/17 03:16:11;;;;;;;;;9.00;9.00;;;;;19.08;53.98;102334.03;5008012;28;9613;-66
2022/06/17 03:18:39;;;;;;;;;9.75;8.25;;;;;19.08;54.26;102330.44;5010379;28;9705;-65
2022/06/17 03:21:06;;;;;;;;;9.00;9.00;;;;;19.10;54.31;102325.63;5013093;28;9015;-67
2022/06/17 03:23:48;;;;;;;;;8.75;7.50;;;;;19.09;54.52;102327.53;5030013;28;8821;-66
2022/06/17 03:26:21;;;;;;;;;12.67;10.67;;;;;19.08;54.37;102328.59;5029290;28;8846;-65
2022/06/17 03:28:51;;;;;;;;;7.00;6.67;;;;;19.06;54.53;102335.28;4995998;28;9086;-66
2022/06/17 03:31:39;;;;;;;;;9.00;7.67;;;;;19.04;54.66;102327.34;5010892;28;8910;-66
2022/06/17 03:34:23;;;;;;;;;7.33;7.33;;;;;19.08;54.55;102330.44;5030183;28;8921;-66
2022/06/17 03:37:13;;;;;;;;;9.00;8.00;;;;;19.08;54.59;102334.03;5013750;28;8973;-66
2022/06/17 03:39:44;;;;;;;;;9.75;9.75;;;;;19.09;54.45;102322.06;5028359;28;8918;-67
2022/06/17 03:42:17;;;;;;;;;12.00;8.50;;;;;19.13;54.54;102322.47;5005142;28;8823;-66
2022/06/17 03:44:59;;;;;;;;;9.25;8.75;;;;;19.13;54.56;102317.84;4993837;28;8816;-67
2022/06/17 03:47:53;;;;;;;;;11.00;9.75;;;;;19.14;54.75;102327.72;5001576;28;8840;-66
2022/06/17 03:50:29;;;;;;;;;10.00;10.00;;;;;19.16;54.75;102325.63;5029169;28;8829;-66
2022/06/17 03:53:26;;;;;;;;;11.33;9.00;;;;;19.16;54.68;102325.63;5013483;28;8872;-66
2022/06/17 03:55:57;;;;;;;;;12.67;11.00;;;;;19.14;54.92;102327.72;5029929;28;9859;-66
2022/06/17 03:58:24;;;;;;;;;11.67;10.33;;;;;19.14;54.99;102322.25;5013235;28;9283;-65
2022/06/17 04:01:10;;;;;;;;;12.67;12.00;;;;;19.15;54.94;102326.66;5022098;28;8924;-66
2022/06/17 04:03:41;;;;;;;;;9.33;9.33;;;;;19.14;54.97;102335.06;4993735;28;9122;-66
2022/06/17 04:06:14;;;;;;;;;12.33;11.67;;;;;19.14;55.22;102326.88;5024752;28;9037;-65
2022/06/17 04:08:56;;;;;;;;;9.67;9.00;;;;;19.14;55.23;102341.34;4993523;28;8961;-66
2022/06/17 04:11:28;;;;;;;;;12.00;9.00;;;;;19.15;55.29;102342.19;4991998;28;8919;-66
2022/06/17 04:13:59;;;;;;;;;9.00;9.00;;;;;19.13;55.41;102342.41;5002322;28;8837;-66
2022/06/17 04:16:43;;;;;;;;;12.25;12.25;;;;;19.12;55.70;102348.94;5012768;28;8829;-66
2022/06/17 04:19:23;;;;;;;;;11.00;11.00;;;;;19.11;55.79;102336.31;5012435;28;8819;-66
2022/06/17 04:21:59;;;;;;;;;16.67;16.00;;;;;19.13;55.70;102341.59;4994536;28;8955;-66
2022/06/17 04:24:29;;;;;;;;;13.25;12.00;;;;;19.12;55.36;102335.28;5012947;28;9010;-66
2022/06/17 04:27:19;;;;;;;;;14.67;14.67;;;;;19.10;55.46;102322.91;5029731;28;8837;-66
2022/06/17 04:29:53;;;;;;;;;13.67;13.67;;;;;19.06;55.55;102321.66;5005362;28;9011;-66
2022/06/17 04:32:26;;;;;;;;;13.00;11.33;;;;;19.05;55.39;102323.53;5017297;28;8949;-67
2022/06/17 04:34:54;;;;;;;;;8.00;8.00;;;;;19.06;55.28;102322.47;4992648;28;8931;-67
2022/06/17 04:37:23;;;;;;;;;14.33;12.33;;;;;19.06;55.51;102319.75;5012402;28;9008;-66
2022/06/17 04:40:25;;;;;;;;;11.33;11.33;;;;;19.10;55.22;102320.16;5014842;28;9691;-65
2022/06/17 04:43:33;;;;;;;;;13.33;11.00;;;;;19.10;55.18;102326.47;5011765;28;8950;-66
2022/06/17 04:46:13;;;;;;;;;12.00;10.50;;;;;19.13;55.03;102320.59;4996785;28;9058;-66
2022/06/17 04:48:41;;;;;;;;;12.50;12.00;;;;;19.13;55.10;102314.28;5027430;28;8979;-66
2022/06/17 04:51:09;;;;;;;;;12.25;10.00;;;;;19.15;54.93;102318.47;5024385;28;8818;-66
2022/06/17 04:53:43;;;;;;;;;10.67;9.00;;;;;19.15;54.89;102310.28;5000477;28;8844;-65
2022/06/17 04:56:46;;;;;;;;;8.33;8.33;;;;;19.18;54.87;102309.00;4990679;28;9139;-65
2022/06/17 04:59:35;;;;;;;;;9.75;9.75;;;;;19.21;54.63;102305.84;4982778;28;9151;-67
2022/06/17 05:02:24;;;;;;;;;11.00;10.75;;;;;19.24;54.58;102295.34;4991852;28;8820;-66
2022/06/17 05:05:16;;;;;;;;;12.25;11.75;;;;;19.28;54.72;102303.91;5018629;28;8853;-66
2022/06/17 05:07:46;;;;;;;;;10.00;10.00;;;;;19.29;54.71;102302.03;5024832;28;8834;-66
2022/06/17 05:10:41;;;;;;;;;7.50;7.50;;;;;19.32;54.55;102296.13;4999778;28;8837;-66
2022/06/17 05:13:24;;;;;;;;;10.75;10.75;;;;;19.36;54.71;102297.38;5012133;28;8841;-65
2022/06/17 05:15:55;;;;;;;;;9.50;9.00;;;;;19.39;54.84;102305.13;4993982;28;8877;-66
2022/06/17 05:18:22;;;;;;;;;12.50;10.50;;;;;19.41;54.60;102313.97;5001111;28;8849;-66
2022/06/17 05:20:56;;;;;;;;;8.00;7.25;;;;;19.40;54.54;102302.19;4988894;28;8861;-63
2022/06/17 05:23:23;;;;;;;;;12.00;12.00;;;;;19.43;54.68;102301.75;5005931;28;8844;-65
2022/06/17 05:25:50;;;;;;;;;9.00;9.00;;;;;19.46;54.71;102300.50;4996653;28;8855;-65
2022/06/17 05:28:19;;;;;;;;;9.25;8.75;;;;;19.48;54.62;102295.63;4990357;28;8828;-65
2022/06/17 05:30:55;;;;;;;;;10.75;10.25;;;;;19.49;54.72;102295.44;5012197;28;8864;-64
2022/06/17 05:33:32;;;;;;;;;11.75;10.50;;;;;19.50;54.46;102293.53;5010167;28;8866;-64
2022/06/17 05:35:59;;;;;;;;;12.50;9.00;;;;;19.52;54.36;102294.13;4999742;28;9576;-64
2022/06/17 05:38:26;;;;;;;;;10.75;9.75;;;;;19.55;54.12;102296.44;5015431;28;8851;-65
2022/06/17 05:40:53;;;;;;;;;12.50;11.00;;;;;19.58;54.16;102295.19;5000654;28;8873;-65
2022/06/17 05:43:20;;;;;;;;;12.25;11.75;;;;;19.59;54.03;102297.69;5002564;28;8833;-66
2022/06/17 05:45:47;;;;;;;;;12.00;11.75;;;;;19.63;53.95;102287.19;5013476;28;8868;-65
2022/06/17 05:48:24;;;;;;;;;8.00;8.00;;;;;19.64;53.76;102276.03;5013163;28;8854;-64
2022/06/17 05:51:13;;;;;;;;;11.33;10.67;;;;;19.69;53.79;102269.94;5013776;28;8813;-64
2022/06/17 05:53:52;;;;;;;;;9.75;9.25;;;;;19.72;53.84;102272.19;5000034;28;8864;-65
2022/06/17 05:56:51;;;;;;;;;12.25;11.00;;;;;19.71;53.84;102271.38;4999645;28;8956;-64
2022/06/17 05:59:18;;;;;;;;;8.75;8.75;;;;;19.73;53.79;102260.25;5011365;28;8891;-65
2022/06/17 06:01:45;;;;;;;;;14.25;13.00;;;;;19.74;53.55;102253.72;4996069;28;8959;-65
2022/06/17 06:04:22;;;;;;;;;9.00;9.00;;;;;19.77;53.77;102245.06;4999110;28;8879;-64
2022/06/17 06:06:51;;;;;;;;;17.25;16.25;;;;;19.75;53.73;102253.47;5003373;28;9545;-65
2022/06/17 06:09:18;;;;;;;;;13.25;13.25;;;;;19.73;53.59;102255.59;5001599;28;8847;-66
2022/06/17 06:11:44;;;;;;;;;10.00;10.00;;;;;19.75;53.64;102258.94;4995432;28;8824;-65
2022/06/17 06:14:14;;;;;;;;;13.50;12.00;;;;;19.78;53.51;102260.41;4999097;28;8849;-66
2022/06/17 06:16:40;;;;;;;;;11.00;11.00;;;;;19.84;54.03;102269.59;5030939;28;8833;-66
2022/06/17 06:19:07;;;;;;;;;11.25;11.00;;;;;19.91;53.63;102275.88;4995201;28;8836;-65
2022/06/17 06:21:34;;;;;;;;;16.00;16.00;;;;;19.96;53.79;102267.81;5011778;28;8945;-66
2022/06/17 06:24:01;;;;;;;;;9.50;9.50;;;;;19.99;53.89;102268.22;5014901;28;8845;-66
2022/06/17 06:26:33;;;;;;;;;14.25;13.25;;;;;20.03;53.96;102265.06;5032525;28;8869;-67
2022/06/17 06:29:20;;;;;;;;;14.00;14.00;;;;;20.00;54.03;102266.31;5009633;28;8828;-66
2022/06/17 06:31:48;;;;;;;;;10.00;9.00;;;;;20.05;54.25;102271.94;5011382;28;8832;-66
2022/06/17 06:34:35;;;;;;;;;10.50;9.25;;;;;20.10;54.10;102265.84;5008832;28;8935;-65
2022/06/17 06:37:02;;;;;;;;;13.75;12.00;;;;;20.16;53.93;102273.13;5014248;28;8837;-64
2022/06/17 06:39:32;;;;;;;;;9.25;9.00;;;;;20.20;54.02;102268.91;5008142;28;8816;-67
2022/06/17 06:42:00;;;;;;;;;12.75;10.00;;;;;20.22;53.87;102275.81;4995185;28;8824;-66
2022/06/17 06:44:27;;;;;;;;;13.50;12.25;;;;;20.27;53.56;102271.59;5016500;28;8861;-64
2022/06/17 06:47:06;;;;;;;;;11.50;10.25;;;;;20.35;53.37;102279.50;5014238;28;8833;-66
2022/06/17 06:49:52;;;;;;;;;15.00;13.25;;;;;20.40;52.77;102268.72;5021117;28;8844;-66
2022/06/17 06:52:23;;;;;;;;;14.00;11.75;;;;;20.46;52.39;102263.19;5012357;28;8849;-67
2022/06/17 06:54:51;;;;;;;;;14.75;14.75;;;;;20.49;51.65;102268.22;5005155;28;9587;-66
2022/06/17 06:57:19;;;;;;;;;5.75;5.75;;;;;20.59;51.58;102269.63;5016378;28;9635;-67
2022/06/17 07:00:03;;;;;;;;;9.50;9.50;;;;;20.66;50.82;102270.38;5003325;28;8844;-66
2022/06/17 07:02:30;;;;;;;;;8.00;8.00;;;;;20.76;50.50;102269.84;4994740;28;9610;-66
2022/06/17 07:04:57;;;;;;;;;7.75;7.75;;;;;20.85;50.23;102274.78;5004372;28;8849;-65
2022/06/17 07:07:23;;;;;;;;;8.25;7.00;;;;;20.93;50.15;102266.28;5032156;28;8833;-67
2022/06/17 07:09:50;;;;;;;;;6.00;6.00;;;;;21.02;49.91;102266.81;5023783;28;8901;-65
2022/06/17 07:12:17;;;;;;;;;5.75;5.75;;;;;21.06;49.78;102269.91;5012198;28;8829;-66
2022/06/17 07:14:44;;;;;;;;;7.50;7.50;;;;;21.08;50.03;102281.50;5020222;28;8851;-67
2022/06/17 07:17:10;;;;;;;;;9.25;9.25;;;;;21.06;49.03;102280.88;5031630;28;8825;-67
2022/06/17 07:19:37;;;;;;;;;14.00;11.75;;;;;21.00;48.96;102277.16;5023920;28;8899;-66
2022/06/17 07:22:03;;;;;;;;;9.50;9.50;;;;;20.98;48.52;102277.41;5010694;28;8896;-66
2022/06/17 07:24:30;;;;;;;;;8.25;8.25;;;;;21.05;48.55;102269.09;5018277;28;8833;-67
2022/06/17 07:26:56;;;;;;;;;9.50;9.50;;;;;21.13;48.81;102268.78;5031521;28;8829;-67
2022/06/17 07:29:23;;;;;;;;;7.00;7.00;;;;;21.21;48.63;102264.88;5025723;28;8859;-65
2022/06/17 07:31:49;;;;;;;;;8.50;8.50;;;;;21.28;48.55;102271.13;5011701;28;8825;-66
2022/06/17 07:34:16;;;;;;;;;7.50;7.50;;;;;21.33;48.50;102281.41;5014848;28;8849;-66
2022/06/17 07:42:12;;;;;;;;;6.25;6.25;;;;;21.42;48.24;102285.50;5031104;28;8881;-65
2022/06/17 07:44:39;;;;;;;;;13.50;12.75;;;;;21.48;48.27;102284.59;5005674;28;8837;-66
2022/06/17 07:47:06;;;;;;;;;10.75;10.75;;;;;21.53;48.17;102284.72;5011298;28;8836;-66
2022/06/17 07:49:33;;;;;;;;;10.00;10.00;;;;;21.57;47.72;102282.34;5018246;28;8944;-66
2022/06/17 07:52:06;;;;;;;;;4.00;3.75;;;;;21.61;47.29;102289.03;5031102;28;8833;-66
2022/06/17 07:54:32;;;;;;;;;10.50;8.75;;;;;21.60;47.21;102282.72;5024370;28;9556;-66
2022/06/17 07:56:59;;;;;;;;;12.25;9.75;;;;;21.63;47.30;102285.00;5010766;28;8825;-66
2022/06/17 07:59:25;;;;;;;;;9.25;9.25;;;;;21.68;47.12;102290.63;5016888;28;8821;-67
2022/06/17 08:01:52;;;;;;;;;16.00;15.50;;;;;21.77;47.21;102293.84;5030941;28;8857;-65
2022/06/17 08:04:19;;;;;;;;;7.25;7.25;;;;;21.83;46.83;102289.34;5025998;28;8836;-66
2022/06/17 08:06:49;;;;;;;;;9.00;9.00;;;;;21.88;46.97;102284.84;5010800;28;8809;-66
2022/06/17 08:09:18;;;;;;;;;12.00;8.50;;;;;21.92;46.78;102290.69;5015637;28;8829;-65
2022/06/17 08:11:45;;;;;;;;;11.00;9.50;;;;;21.95;46.60;102293.78;5030867;28;8829;-65
2022/06/17 08:14:12;;;;;;;;;15.25;11.25;;;;;21.98;46.22;102292.47;5026461;28;8987;-66
2022/06/17 08:16:38;;;;;;;;;8.00;8.00;;;;;22.10;46.31;102296.06;5010816;28;8813;-66
2022/06/17 08:19:07;;;;;;;;;8.00;7.50;;;;;22.18;46.72;102294.94;5013613;28;8833;-67
2022/06/17 08:21:34;;;;;;;;;11.75;11.75;;;;;22.21;46.71;102306.28;5030690;28;8878;-66
2022/06/17 08:24:21;;;;;;;;;10.75;9.25;;;;;22.29;46.61;102304.25;5025322;28;8828;-65
2022/06/17 08:26:48;;;;;;;;;16.75;16.00;;;;;22.27;46.29;102303.63;5010777;28;8827;-66
2022/06/17 08:29:14;;;;;;;;;10.25;10.25;;;;;22.28;45.86;102300.69;5014987;28;8825;-66
2022/06/17 08:34:46;;;;;;;;;10.75;10.00;;;;;22.35;46.47;102284.09;5022025;28;8829;-65
2022/06/17 08:37:15;;;;;;;;;8.50;8.50;;;;;22.40;46.54;102284.19;5010359;28;9572;-65
2022/06/17 08:39:44;;;;;;;;;8.25;8.25;;;;;22.54;46.38;102288.38;5001084;28;8817;-65
2022/06/17 08:42:30;;;;;;;;;7.00;7.00;;;;;22.60;46.29;102290.16;5030121;28;8837;-65
2022/06/17 08:45:02;;;;;;;;;8.50;7.75;;;;;22.69;46.25;102286.00;5019790;28;8926;-64
2022/06/17 08:48:00;;;;;;;;;11.00;9.00;;;;;22.79;46.13;102282.63;5007627;28;8823;-66
2022/06/17 08:51:03;;;;;;;;;9.00;8.25;;;;;22.83;46.38;102289.31;5023755;28;9263;-66
2022/06/17 08:53:59;;;;;;;;;10.25;9.25;;;;;22.82;46.30;102278.59;4979700;28;8841;-66
2022/06/17 08:56:41;;;;;;;;;11.25;11.00;;;;;22.80;46.38;102275.22;5008848;28;8836;-64
2022/06/17 08:59:35;;;;;;;;;11.50;9.75;;;;;22.80;46.38;102275.22;5009749;28;8902;-64
2022/06/17 09:02:19;;;;;;;;;6.25;5.75;;;;;22.81;46.65;102279.63;5010369;28;8834;-65
2022/06/17 09:05:18;;;;;;;;;12.50;11.25;;;;;22.86;46.63;102286.09;5009945;28;8957;-64
2022/06/17 09:07:56;;;;;;;;;9.00;8.25;;;;;22.98;46.37;102290.78;5009354;28;8861;-64
2022/06/17 09:10:34;;;;;;;;;11.00;9.00;;;;;23.11;45.99;102287.75;5009985;28;8843;-65
2022/06/17 09:13:19;;;;;;;;;7.25;6.00;;;;;23.21;46.59;102279.69;5010229;28;8831;-64
2022/06/17 09:16:08;;;;;;;;;8.00;8.00;;;;;23.28;46.13;102282.31;5009634;28;8847;-65
2022/06/17 09:18:42;;;;;;;;;5.50;5.50;;;;;23.40;45.99;102294.09;5026550;28;8822;-65
2022/06/17 09:21:21;;;;;;;;;11.00;11.00;;;;;23.52;45.49;102291.31;5009961;28;8899;-65
2022/06/17 09:23:50;;;;;;;;;9.00;8.00;;;;;23.58;44.61;102293.91;5010309;28;8907;-65
2022/06/17 09:26:22;;;;;;;;;10.00;8.25;;;;;23.60;43.92;102286.22;5029658;28;8825;-63
2022/06/17 09:28:59;;;;;;;;;8.25;8.25;;;;;23.66;44.09;102289.97;5023171;28;8824;-63
2022/06/17 09:31:35;;;;;;;;;9.75;9.75;;;;;23.75;44.25;102285.72;5010112;28;8896;-64
2022/06/17 09:34:12;;;;;;;;;9.25;9.25;;;;;23.80;43.75;102284.97;5015594;28;8845;-63
2022/06/17 09:36:41;;;;;;;;;10.00;10.00;;;;;23.91;43.63;102267.56;5011806;28;8894;-63
2022/06/17 09:39:14;;;;;;;;;8.25;7.50;;;;;24.00;43.89;102273.50;5014168;28;8915;-62
2022/06/17 09:41:53;;;;;;;;;7.50;6.25;;;;;24.07;43.79;102280.50;5025452;28;8886;-65
2022/06/17 09:44:31;;;;;;;;;9.50;9.50;;;;;24.20;43.88;102284.00;5024462;28;8825;-62
2022/06/17 09:47:07;;;;;;;;;9.25;9.25;;;;;24.24;43.62;102276.91;5009723;28;8817;-63
2022/06/17 09:50:06;;;;;;;;;12.25;11.75;;;;;24.24;42.97;102276.91;5016984;28;8844;-64
2022/06/17 09:52:41;;;;;;;;;12.25;12.00;;;;;24.24;42.83;102274.16;5023843;28;8853;-64
2022/06/17 09:55:19;;;;;;;;;8.25;8.25;;;;;24.34;43.28;102274.31;5017633;28;8857;-63
2022/06/17 09:58:02;;;;;;;;;10.00;9.50;;;;;24.42;42.76;102272.00;5009902;28;8833;-64
2022/06/17 10:00:35;;;;;;;;;10.25;10.25;;;;;24.41;42.63;102270.31;5023990;28;8822;-63
2022/06/17 10:03:20;;;;;;;;;9.25;7.50;;;;;24.51;42.17;102272.41;5029481;28;8825;-64
2022/06/17 10:05:57;;;;;;;;;9.50;8.00;;;;;24.54;42.21;102265.56;5012532;28;8829;-62
2022/06/17 10:08:56;;;;;;;;;9.50;9.50;;;;;24.54;42.21;102266.38;5009526;28;8883;-64
2022/06/17 10:11:44;;;;;;;;;8.50;8.25;;;;;24.64;42.09;102247.28;4989721;28;8896;-64
2022/06/17 10:14:33;;;;;;;;;8.25;7.25;;;;;24.70;42.06;102242.66;4993753;28;8889;-64
2022/06/17 10:20:05;;;;;;;;;14.00;13.00;;;;;24.76;40.75;102252.66;5010912;28;8847;-65
2022/06/17 10:22:44;;;;;;;;;10.00;8.00;;;;;24.79;41.35;102232.00;5013158;28;8839;-65
2022/06/17 10:25:17;;;;;;;;;9.75;8.75;;;;;24.88;41.25;102225.81;5024297;28;8825;-63
2022/06/17 10:28:17;;;;;;;;;7.25;7.25;;;;;25.04;40.83;102217.75;5032231;28;8837;-65
2022/06/17 10:30:54;;;;;;;;;8.25;7.00;;;;;25.14;40.81;102215.94;5015676;28;8801;-64
2022/06/17 10:33:21;;;;;;;;;7.50;7.50;;;;;25.19;40.30;102220.69;5012702;28;8821;-61
2022/06/17 10:35:48;;;;;;;;;8.25;8.25;;;;;25.24;40.61;102217.16;5029495;28;8895;-65
2022/06/17 10:38:20;;;;;;;;;9.50;9.50;;;;;25.25;40.07;102216.91;5032520;28;8876;-64
2022/06/17 10:40:47;;;;;;;;;10.50;9.75;;;;;25.15;39.19;102211.25;5015233;28;8817;-64
2022/06/17 10:43:20;;;;;;;;;9.25;9.25;;;;;25.17;39.65;102219.28;5012621;28;8939;-65
2022/06/17 10:45:48;;;;;;;;;8.50;8.50;;;;;25.22;38.91;102219.34;5027718;28;8817;-65
2022/06/17 10:48:21;;;;;;;;;8.75;8.75;;;;;25.28;39.24;102218.28;5032089;28;8821;-64
2022/06/17 10:50:47;;;;;;;;;9.25;7.75;;;;;25.38;39.86;102219.25;5015104;28;8827;-64
2022/06/17 10:53:24;;;;;;;;;10.50;10.50;;;;;25.44;39.47;102222.88;5012461;28;8856;-64
2022/06/17 10:56:00;;;;;;;;;13.75;10.50;;;;;25.37;38.85;102212.06;5029514;28;8829;-64
2022/06/17 10:58:31;;;;;;;;;9.25;9.25;;;;;25.37;38.67;102208.47;5031828;28;8813;-64
2022/06/17 11:01:01;;;;;;;;;11.75;10.25;;;;;25.37;38.47;102202.97;5013591;28;8920;-64
2022/06/17 11:03:39;;;;;;;;;7.25;7.25;;;;;25.51;39.01;102197.84;5012273;28;8845;-64
2022/06/17 11:06:08;;;;;;;;;7.00;7.00;;;;;25.61;39.37;102201.53;5031315;28;8825;-64
2022/06/17 11:09:03;;;;;;;;;9.25;8.25;;;;;25.62;38.63;102202.38;5031671;28;8825;-65
2022/06/17 11:14:41;;;;;;;;;7.25;7.25;;;;;25.74;38.20;102189.22;5001664;28;8829;-64
2022/06/17 11:17:12;;;;;;;;;12.00;10.00;;;;;25.79;37.96;102191.22;5023819;28;9606;-64
2022/06/17 11:19:41;;;;;;;;;9.75;9.50;;;;;25.80;37.99;102185.44;5023934;28;9640;-64
2022/06/17 11:22:18;;;;;;;;;9.25;8.50;;;;;25.84;37.75;102170.03;5011927;28;8883;-65
2022/06/17 11:24:54;;;;;;;;;10.75;8.00;;;;;25.87;37.54;102165.91;5020245;28;8832;-63
2022/06/17 11:27:31;;;;;;;;;10.75;10.75;;;;;25.84;37.57;102161.75;5031522;28;8829;-64
2022/06/17 11:30:20;;;;;;;;;7.25;5.25;;;;;25.90;37.31;102162.63;5021617;28;8813;-64
2022/06/17 11:32:48;;;;;;;;;9.00;9.00;;;;;25.96;37.45;102153.28;5011356;28;8856;-64
2022/06/17 11:35:25;;;;;;;;;11.00;10.00;;;;;26.06;36.93;102153.34;5023745;28;8825;-64
2022/06/17 11:37:53;;;;;;;;;10.00;9.00;;;;;26.03;36.29;102155.81;5031129;28;8821;-65
2022/06/17 11:40:23;;;;;;;;;6.00;6.00;;;;;26.08;36.10;102151.16;5018282;28;8875;-65
2022/06/17 11:42:54;;;;;;;;;8.50;8.50;;;;;26.17;36.00;102136.84;5011717;28;8915;-65
2022/06/17 11:45:29;;;;;;;;;6.75;6.75;;;;;26.13;35.71;102137.41;5024772;28;8829;-64
2022/06/17 11:48:01;;;;;;;;;7.00;7.00;;;;;26.11;35.98;102145.09;5030999;28;8825;-64
2022/06/17 11:50:32;;;;;;;;;6.75;6.75;;;;;26.10;35.91;102135.16;5016563;28;8853;-63
2022/06/17 11:53:06;;;;;;;;;7.25;7.25;;;;;26.14;35.91;102135.47;5011482;28;8816;-64
2022/06/17 11:55:40;;;;;;;;;9.00;8.00;;;;;26.04;36.18;102151.94;5025908;28;8841;-64
2022/06/17 11:58:32;;;;;;;;;5.75;5.75;;;;;26.10;36.27;102146.19;5012762;28;8822;-64
2022/06/17 12:01:12;;;;;;;;;6.25;6.25;;;;;26.20;36.48;102145.41;5012453;28;8890;-64
2022/06/17 12:03:44;;;;;;;;;7.25;6.75;;;;;26.27;35.96;102143.25;5011343;28;8879;-64
2022/06/17 12:06:44;;;;;;;;;5.00;5.00;;;;;26.39;35.56;102145.81;4991409;28;8845;-65
2022/06/17 12:09:24;;;;;;;;;8.00;8.00;;;;;26.45;35.54;102141.97;4995489;28;8890;-64
2022/06/17 12:11:55;;;;;;;;;8.25;8.00;;;;;26.45;35.04;102147.50;5011097;28;8823;-64
2022/06/17 12:14:32;;;;;;;;;6.75;6.75;;;;;26.39;34.74;102143.03;5016026;28;8837;-63
2022/06/17 12:16:59;;;;;;;;;8.25;8.25;;;;;26.44;35.72;102136.69;5030586;28;9358;-63